Lycoming, Pennsylvania
Current Conditions -  °F | °C
As of 4:54 AM on Friday 24 Oct 2014 (Local Time) from KIPT Reporting Station
Overcast Overcast  
Wind Chill: 55°   Ceiling: 3300
Heat Index: 55°   Visibility: 10mi
Dew Point: 43°   Wind: 8mph
Humidity: 64%   Direction: 280°W
Pressure: 29.92"   Gusts: NA
Location:  41.3181°N, 77.075°W
Report Text: KIPT 240854Z AUTO 28007KT 10SM OVC033 13/06 A2992 RMK AO2 SLP133 T01280061 51007
Loading
Personal Weather Stations






























Interactive Weather Map
Tropical Storm Tracking
New forecast layout! Learn more

10-Day Weather Forecast

Advertisements
Track Severe Weather on mobile